sensor_id;sensor_type;location;lat;lon;timestamp;temperature;humidity
44069;DHT22;29738;51.234;5.484;2022-07-29T00:00:45;18.40;99.90
44069;DHT22;29738;51.234;5.484;2022-07-29T00:03:12;18.70;99.90
44069;DHT22;29738;51.234;5.484;2022-07-29T00:05:39;18.50;99.90
44069;DHT22;29738;51.234;5.484;2022-07-29T00:08:05;18.40;99.90
44069;DHT22;29738;51.234;5.484;2022-07-29T00:10:31;18.10;99.90
44069;DHT22;29738;51.234;5.484;2022-07-29T00:12:57;18.10;99.90
44069;DHT22;29738;51.234;5.484;2022-07-29T00:15:22;18.20;99.90
44069;DHT22;29738;51.234;5.484;2022-07-29T00:17:48;18.20;99.90
44069;DHT22;29738;51.234;5.484;2022-07-29T00:20:14;18.20;99.90
44069;DHT22;29738;51.234;5.484;2022-07-29T00:22:40;17.60;99.90
44069;DHT22;29738;51.234;5.484;2022-07-29T00:25:06;16.90;99.90
44069;DHT22;29738;51.234;5.484;2022-07-29T00:27:34;16.40;99.90
44069;DHT22;29738;51.234;5.484;2022-07-29T00:30:00;16.20;99.90
44069;DHT22;29738;51.234;5.484;2022-07-29T00:32:26;16.00;99.90
44069;DHT22;29738;51.234;5.484;2022-07-29T00:34:51;15.90;99.90
44069;DHT22;29738;51.234;5.484;2022-07-29T00:37:35;15.80;99.90
44069;DHT22;29738;51.234;5.484;2022-07-29T00:40:01;15.60;99.90
44069;DHT22;29738;51.234;5.484;2022-07-29T00:42:27;15.60;99.90
44069;DHT22;29738;51.234;5.484;2022-07-29T00:44:53;15.50;99.90
44069;DHT22;29738;51.234;5.484;2022-07-29T00:47:19;15.50;99.90
44069;DHT22;29738;51.234;5.484;2022-07-29T00:49:45;15.40;99.90
44069;DHT22;29738;51.234;5.484;2022-07-29T00:52:11;15.40;99.90
44069;DHT22;29738;51.234;5.484;2022-07-29T00:54:39;15.40;99.90
44069;DHT22;29738;51.234;5.484;2022-07-29T00:57:06;15.50;99.90
44069;DHT22;29738;51.234;5.484;2022-07-29T00:59:33;15.60;99.90
44069;DHT22;29738;51.234;5.484;2022-07-29T01:02:00;15.60;99.90
44069;DHT22;29738;51.234;5.484;2022-07-29T01:04:25;15.60;99.90
44069;DHT22;29738;51.234;5.484;2022-07-29T01:06:53;15.60;99.90
44069;DHT22;29738;51.234;5.484;2022-07-29T01:09:20;15.60;99.90
44069;DHT22;29738;51.234;5.484;2022-07-29T01:11:46;15.60;99.90
44069;DHT22;29738;51.234;5.484;2022-07-29T01:14:14;15.70;99.90
44069;DHT22;29738;51.234;5.484;2022-07-29T01:16:59;15.70;99.90
44069;DHT22;29738;51.234;5.484;2022-07-29T01:30:31;15.70;99.90
44069;DHT22;29738;51.234;5.484;2022-07-29T01:33:02;15.60;99.90
44069;DHT22;29738;51.234;5.484;2022-07-29T01:35:54;15.60;99.90
44069;DHT22;29738;51.234;5.484;2022-07-29T01:38:21;15.50;99.90
44069;DHT22;29738;51.234;5.484;2022-07-29T01:41:03;15.40;99.90
44069;DHT22;29738;51.234;5.484;2022-07-29T01:43:43;15.40;99.90
44069;DHT22;29738;51.234;5.484;2022-07-29T01:46:13;15.40;99.90
44069;DHT22;29738;51.234;5.484;2022-07-29T01:48:47;15.40;99.90
44069;DHT22;29738;51.234;5.484;2022-07-29T01:51:21;15.40;99.90
44069;DHT22;29738;51.234;5.484;2022-07-29T01:53:55;15.50;99.90
44069;DHT22;29738;51.234;5.484;2022-07-29T01:56:25;15.40;99.90
44069;DHT22;29738;51.234;5.484;2022-07-29T01:58:56;15.40;99.90
44069;DHT22;29738;51.234;5.484;2022-07-29T02:01:24;15.20;99.90
44069;DHT22;29738;51.234;5.484;2022-07-29T02:03:50;15.30;99.90
44069;DHT22;29738;51.234;5.484;2022-07-29T02:06:21;15.40;99.90
44069;DHT22;29738;51.234;5.484;2022-07-29T02:08:49;15.70;99.90
44069;DHT22;29738;51.234;5.484;2022-07-29T02:11:15;16.00;99.90
44069;DHT22;29738;51.234;5.484;2022-07-29T02:13:41;16.00;99.90
44069;DHT22;29738;51.234;5.484;2022-07-29T02:16:09;15.90;99.90
44069;DHT22;29738;51.234;5.484;2022-07-29T02:18:37;15.80;99.90
44069;DHT22;29738;51.234;5.484;2022-07-29T02:21:04;15.60;99.90
44069;DHT22;29738;51.234;5.484;2022-07-29T02:23:32;15.40;99.90
44069;DHT22;29738;51.234;5.484;2022-07-29T02:25:59;15.30;99.90
44069;DHT22;29738;51.234;5.484;2022-07-29T02:28:29;15.40;99.90
44069;DHT22;29738;51.234;5.484;2022-07-29T02:31:00;15.40;99.90
44069;DHT22;29738;51.234;5.484;2022-07-29T02:33:27;15.40;99.90
44069;DHT22;29738;51.234;5.484;2022-07-29T02:35:54;15.40;99.90
44069;DHT22;29738;51.234;5.484;2022-07-29T02:38:21;15.40;99.90
44069;DHT22;29738;51.234;5.484;2022-07-29T02:41:11;15.50;99.90
44069;DHT22;29738;51.234;5.484;2022-07-29T02:43:38;15.60;99.90
44069;DHT22;29738;51.234;5.484;2022-07-29T02:46:13;15.80;99.90
44069;DHT22;29738;51.234;5.484;2022-07-29T02:49:00;16.20;99.90
44069;DHT22;29738;51.234;5.484;2022-07-29T02:51:33;16.20;99.90
44069;DHT22;29738;51.234;5.484;2022-07-29T02:54:06;16.40;99.90
44069;DHT22;29738;51.234;5.484;2022-07-29T02:56:33;16.70;99.90
44069;DHT22;29738;51.234;5.484;2022-07-29T02:59:04;16.70;99.90
44069;DHT22;29738;51.234;5.484;2022-07-29T03:01:32;16.70;99.90
44069;DHT22;29738;51.234;5.484;2022-07-29T03:04:02;16.40;99.90
44069;DHT22;29738;51.234;5.484;2022-07-29T03:06:28;16.00;99.90
44069;DHT22;29738;51.234;5.484;2022-07-29T03:08:57;15.70;99.90
44069;DHT22;29738;51.234;5.484;2022-07-29T03:11:24;15.30;99.90
44069;DHT22;29738;51.234;5.484;2022-07-29T03:13:51;15.10;99.90
44069;DHT22;29738;51.234;5.484;2022-07-29T03:16:19;15.00;99.90
44069;DHT22;29738;51.234;5.484;2022-07-29T03:18:45;15.00;99.90
44069;DHT22;29738;51.234;5.484;2022-07-29T03:21:12;14.90;99.90
44069;DHT22;29738;51.234;5.484;2022-07-29T03:23:43;14.80;99.90
44069;DHT22;29738;51.234;5.484;2022-07-29T03:26:11;14.80;99.90
44069;DHT22;29738;51.234;5.484;2022-07-29T03:28:36;14.80;99.90
44069;DHT22;29738;51.234;5.484;2022-07-29T03:31:02;14.90;99.90
44069;DHT22;29738;51.234;5.484;2022-07-29T03:33:28;14.90;99.90
44069;DHT22;29738;51.234;5.484;2022-07-29T03:35:56;14.90;99.90
44069;DHT22;29738;51.234;5.484;2022-07-29T03:38:24;14.90;99.90
44069;DHT22;29738;51.234;5.484;2022-07-29T03:40:54;14.90;99.90
44069;DHT22;29738;51.234;5.484;2022-07-29T03:43:22;14.90;99.90
44069;DHT22;29738;51.234;5.484;2022-07-29T03:45:50;14.80;99.90
44069;DHT22;29738;51.234;5.484;2022-07-29T03:48:20;14.80;99.90
44069;DHT22;29738;51.234;5.484;2022-07-29T03:50:47;14.70;99.90
44069;DHT22;29738;51.234;5.484;2022-07-29T03:53:13;14.70;99.90
44069;DHT22;29738;51.234;5.484;2022-07-29T03:55:43;14.70;99.90
44069;DHT22;29738;51.234;5.484;2022-07-29T03:58:11;14.60;99.90
44069;DHT22;29738;51.234;5.484;2022-07-29T04:00:38;14.80;99.90
44069;DHT22;29738;51.234;5.484;2022-07-29T04:03:05;14.90;99.90
44069;DHT22;29738;51.234;5.484;2022-07-29T04:05:31;15.10;99.90
44069;DHT22;29738;51.234;5.484;2022-07-29T04:07:56;15.50;99.90
44069;DHT22;29738;51.234;5.484;2022-07-29T04:10:22;15.60;99.90
44069;DHT22;29738;51.234;5.484;2022-07-29T04:12:49;15.50;99.90
44069;DHT22;29738;51.234;5.484;2022-07-29T04:15:15;15.40;99.90
44069;DHT22;29738;51.234;5.484;2022-07-29T04:17:41;15.40;99.90
44069;DHT22;29738;51.234;5.484;2022-07-29T04:20:07;15.50;99.90
44069;DHT22;29738;51.234;5.484;2022-07-29T04:22:33;15.50;99.90
44069;DHT22;29738;51.234;5.484;2022-07-29T04:24:59;15.30;99.90
44069;DHT22;29738;51.234;5.484;2022-07-29T04:27:25;15.10;99.90
44069;DHT22;29738;51.234;5.484;2022-07-29T04:29:51;15.20;99.90
44069;DHT22;29738;51.234;5.484;2022-07-29T04:32:16;15.30;99.90
44069;DHT22;29738;51.234;5.484;2022-07-29T04:34:42;15.20;99.90
44069;DHT22;29738;51.234;5.484;2022-07-29T04:37:08;15.20;99.90
44069;DHT22;29738;51.234;5.484;2022-07-29T04:39:33;15.00;99.90
44069;DHT22;29738;51.234;5.484;2022-07-29T04:41:59;14.90;99.90
44069;DHT22;29738;51.234;5.484;2022-07-29T04:44:25;14.80;99.90
44069;DHT22;29738;51.234;5.484;2022-07-29T04:46:51;14.70;99.90
44069;DHT22;29738;51.234;5.484;2022-07-29T04:49:17;14.70;99.90
44069;DHT22;29738;51.234;5.484;2022-07-29T04:51:43;14.70;99.90
44069;DHT22;29738;51.234;5.484;2022-07-29T04:54:08;14.60;99.90
44069;DHT22;29738;51.234;5.484;2022-07-29T04:56:34;14.60;99.90
44069;DHT22;29738;51.234;5.484;2022-07-29T04:59:00;14.60;99.90
44069;DHT22;29738;51.234;5.484;2022-07-29T05:01:26;14.60;99.90
44069;DHT22;29738;51.234;5.484;2022-07-29T05:03:51;14.60;99.90
44069;DHT22;29738;51.234;5.484;2022-07-29T05:06:17;14.60;99.90
44069;DHT22;29738;51.234;5.484;2022-07-29T05:08:43;14.70;99.90
44069;DHT22;29738;51.234;5.484;2022-07-29T05:11:09;14.80;99.90
44069;DHT22;29738;51.234;5.484;2022-07-29T05:13:34;15.10;99.90
44069;DHT22;29738;51.234;5.484;2022-07-29T05:16:00;15.10;99.90
44069;DHT22;29738;51.234;5.484;2022-07-29T05:18:26;15.20;99.90
44069;DHT22;29738;51.234;5.484;2022-07-29T05:20:52;15.20;99.90
44069;DHT22;29738;51.234;5.484;2022-07-29T05:23:18;15.10;99.90
44069;DHT22;29738;51.234;5.484;2022-07-29T05:25:44;15.20;99.90
44069;DHT22;29738;51.234;5.484;2022-07-29T05:28:10;15.20;99.90
44069;DHT22;29738;51.234;5.484;2022-07-29T05:30:35;15.10;99.90
44069;DHT22;29738;51.234;5.484;2022-07-29T05:33:01;15.00;99.90
44069;DHT22;29738;51.234;5.484;2022-07-29T05:35:27;15.00;99.90
44069;DHT22;29738;51.234;5.484;2022-07-29T05:37:52;14.90;99.90
44069;DHT22;29738;51.234;5.484;2022-07-29T05:40:18;14.90;99.90
44069;DHT22;29738;51.234;5.484;2022-07-29T05:42:44;14.90;99.90
44069;DHT22;29738;51.234;5.484;2022-07-29T05:45:10;14.90;99.90
44069;DHT22;29738;51.234;5.484;2022-07-29T05:47:36;14.90;99.90
44069;DHT22;29738;51.234;5.484;2022-07-29T05:50:02;14.90;99.90
44069;DHT22;29738;51.234;5.484;2022-07-29T05:52:27;14.80;99.90
44069;DHT22;29738;51.234;5.484;2022-07-29T05:54:53;14.80;99.90
44069;DHT22;29738;51.234;5.484;2022-07-29T05:57:23;15.00;99.90
44069;DHT22;29738;51.234;5.484;2022-07-29T05:59:50;15.00;99.90
44069;DHT22;29738;51.234;5.484;2022-07-29T06:02:16;15.10;99.90
44069;DHT22;29738;51.234;5.484;2022-07-29T06:04:42;15.20;99.90
44069;DHT22;29738;51.234;5.484;2022-07-29T06:07:08;15.20;99.90
44069;DHT22;29738;51.234;5.484;2022-07-29T06:09:34;15.20;99.90
44069;DHT22;29738;51.234;5.484;2022-07-29T06:12:00;15.40;99.90
44069;DHT22;29738;51.234;5.484;2022-07-29T06:14:26;15.10;99.90
44069;DHT22;29738;51.234;5.484;2022-07-29T06:16:53;15.10;99.90
44069;DHT22;29738;51.234;5.484;2022-07-29T06:19:19;15.20;99.90
44069;DHT22;29738;51.234;5.484;2022-07-29T06:21:46;15.20;99.90
44069;DHT22;29738;51.234;5.484;2022-07-29T06:24:12;15.20;99.90
44069;DHT22;29738;51.234;5.484;2022-07-29T06:26:39;15.20;99.90
44069;DHT22;29738;51.234;5.484;2022-07-29T06:29:06;15.20;99.90
44069;DHT22;29738;51.234;5.484;2022-07-29T06:31:32;15.30;99.90
44069;DHT22;29738;51.234;5.484;2022-07-29T06:33:58;15.30;99.90
44069;DHT22;29738;51.234;5.484;2022-07-29T06:36:24;15.20;99.90
44069;DHT22;29738;51.234;5.484;2022-07-29T06:38:50;15.20;99.90
44069;DHT22;29738;51.234;5.484;2022-07-29T06:41:16;15.40;99.90
44069;DHT22;29738;51.234;5.484;2022-07-29T06:43:44;15.70;99.90
44069;DHT22;29738;51.234;5.484;2022-07-29T06:46:12;16.10;99.90
44069;DHT22;29738;51.234;5.484;2022-07-29T06:48:39;16.40;99.90
44069;DHT22;29738;51.234;5.484;2022-07-29T06:51:05;16.40;99.90
44069;DHT22;29738;51.234;5.484;2022-07-29T06:53:32;16.60;99.90
44069;DHT22;29738;51.234;5.484;2022-07-29T06:55:58;16.60;99.90
44069;DHT22;29738;51.234;5.484;2022-07-29T06:58:25;16.50;99.90
44069;DHT22;29738;51.234;5.484;2022-07-29T07:00:51;16.30;99.90
44069;DHT22;29738;51.234;5.484;2022-07-29T07:03:17;16.40;99.90
44069;DHT22;29738;51.234;5.484;2022-07-29T07:05:43;16.60;99.90
44069;DHT22;29738;51.234;5.484;2022-07-29T07:08:10;16.70;99.90
44069;DHT22;29738;51.234;5.484;2022-07-29T07:10:36;16.70;99.90
44069;DHT22;29738;51.234;5.484;2022-07-29T07:13:02;16.70;99.90
44069;DHT22;29738;51.234;5.484;2022-07-29T07:15:28;16.60;99.90
44069;DHT22;29738;51.234;5.484;2022-07-29T07:17:54;16.80;99.90
44069;DHT22;29738;51.234;5.484;2022-07-29T07:20:20;16.80;99.90
44069;DHT22;29738;51.234;5.484;2022-07-29T07:22:46;16.80;99.90
44069;DHT22;29738;51.234;5.484;2022-07-29T07:25:12;17.00;99.90
44069;DHT22;29738;51.234;5.484;2022-07-29T07:27:38;17.00;99.90
44069;DHT22;29738;51.234;5.484;2022-07-29T07:30:06;17.10;99.90
44069;DHT22;29738;51.234;5.484;2022-07-29T07:32:35;17.20;99.90
44069;DHT22;29738;51.234;5.484;2022-07-29T07:35:03;17.10;99.90
44069;DHT22;29738;51.234;5.484;2022-07-29T07:37:29;17.00;99.90
44069;DHT22;29738;51.234;5.484;2022-07-29T07:39:54;17.00;99.90
44069;DHT22;29738;51.234;5.484;2022-07-29T07:42:20;17.10;99.90
44069;DHT22;29738;51.234;5.484;2022-07-29T07:44:46;17.40;99.90
44069;DHT22;29738;51.234;5.484;2022-07-29T07:47:14;17.50;99.90
44069;DHT22;29738;51.234;5.484;2022-07-29T07:49:40;17.70;99.90
44069;DHT22;29738;51.234;5.484;2022-07-29T07:52:05;17.70;99.90
44069;DHT22;29738;51.234;5.484;2022-07-29T07:54:31;17.60;99.90
44069;DHT22;29738;51.234;5.484;2022-07-29T07:56:57;17.80;99.90
44069;DHT22;29738;51.234;5.484;2022-07-29T07:59:23;17.90;99.90
44069;DHT22;29738;51.234;5.484;2022-07-29T08:01:49;17.60;99.90
44069;DHT22;29738;51.234;5.484;2022-07-29T08:04:16;17.70;99.90
44069;DHT22;29738;51.234;5.484;2022-07-29T08:06:42;17.80;99.90
44069;DHT22;29738;51.234;5.484;2022-07-29T08:09:07;17.80;99.90
44069;DHT22;29738;51.234;5.484;2022-07-29T08:11:33;18.00;99.90
44069;DHT22;29738;51.234;5.484;2022-07-29T08:13:59;18.10;99.90
44069;DHT22;29738;51.234;5.484;2022-07-29T08:16:27;18.10;99.90
44069;DHT22;29738;51.234;5.484;2022-07-29T08:18:52;18.20;99.90
44069;DHT22;29738;51.234;5.484;2022-07-29T08:21:23;18.10;99.90
44069;DHT22;29738;51.234;5.484;2022-07-29T08:23:49;18.00;99.90
44069;DHT22;29738;51.234;5.484;2022-07-29T08:26:18;18.10;99.90
44069;DHT22;29738;51.234;5.484;2022-07-29T08:28:46;18.30;99.90
44069;DHT22;29738;51.234;5.484;2022-07-29T08:31:15;18.40;99.90
44069;DHT22;29738;51.234;5.484;2022-07-29T08:33:41;18.50;99.90
44069;DHT22;29738;51.234;5.484;2022-07-29T08:36:08;18.80;99.90
44069;DHT22;29738;51.234;5.484;2022-07-29T08:38:34;18.70;99.90
44069;DHT22;29738;51.234;5.484;2022-07-29T08:41:00;19.00;99.90
44069;DHT22;29738;51.234;5.484;2022-07-29T08:43:27;19.20;99.90
44069;DHT22;29738;51.234;5.484;2022-07-29T08:45:53;19.40;99.90
44069;DHT22;29738;51.234;5.484;2022-07-29T08:48:21;19.20;99.90
44069;DHT22;29738;51.234;5.484;2022-07-29T08:50:48;19.20;99.90
44069;DHT22;29738;51.234;5.484;2022-07-29T08:53:17;19.50;99.90
44069;DHT22;29738;51.234;5.484;2022-07-29T08:55:47;19.80;99.90
44069;DHT22;29738;51.234;5.484;2022-07-29T08:58:14;19.90;99.90
44069;DHT22;29738;51.234;5.484;2022-07-29T09:00:46;20.00;99.90
44069;DHT22;29738;51.234;5.484;2022-07-29T09:03:18;20.00;99.90
44069;DHT22;29738;51.234;5.484;2022-07-29T09:05:46;19.80;99.90
44069;DHT22;29738;51.234;5.484;2022-07-29T09:08:13;20.10;99.90
44069;DHT22;29738;51.234;5.484;2022-07-29T09:10:39;20.20;99.90
44069;DHT22;29738;51.234;5.484;2022-07-29T09:13:05;20.40;99.90
44069;DHT22;29738;51.234;5.484;2022-07-29T09:15:31;20.80;99.90
44069;DHT22;29738;51.234;5.484;2022-07-29T09:17:57;20.90;99.90
44069;DHT22;29738;51.234;5.484;2022-07-29T09:20:24;21.00;99.90
44069;DHT22;29738;51.234;5.484;2022-07-29T09:22:50;21.10;99.90
44069;DHT22;29738;51.234;5.484;2022-07-29T09:25:38;21.20;99.90
44069;DHT22;29738;51.234;5.484;2022-07-29T09:28:12;20.70;99.90
44069;DHT22;29738;51.234;5.484;2022-07-29T09:30:58;20.50;99.90
44069;DHT22;29738;51.234;5.484;2022-07-29T09:33:30;20.70;99.90
44069;DHT22;29738;51.234;5.484;2022-07-29T09:36:04;20.90;99.90
44069;DHT22;29738;51.234;5.484;2022-07-29T09:38:30;20.80;99.90
44069;DHT22;29738;51.234;5.484;2022-07-29T09:40:57;20.90;99.90
44069;DHT22;29738;51.234;5.484;2022-07-29T09:43:23;20.90;99.90
44069;DHT22;29738;51.234;5.484;2022-07-29T09:45:48;20.80;99.90
44069;DHT22;29738;51.234;5.484;2022-07-29T09:48:16;21.10;99.90
44069;DHT22;29738;51.234;5.484;2022-07-29T09:50:44;21.20;99.90
44069;DHT22;29738;51.234;5.484;2022-07-29T09:53:10;21.10;99.90
44069;DHT22;29738;51.234;5.484;2022-07-29T09:55:49;21.10;99.90
44069;DHT22;29738;51.234;5.484;2022-07-29T09:58:20;21.20;99.90
44069;DHT22;29738;51.234;5.484;2022-07-29T10:00:47;21.20;99.90
44069;DHT22;29738;51.234;5.484;2022-07-29T10:03:14;21.40;99.90
44069;DHT22;29738;51.234;5.484;2022-07-29T10:05:41;21.40;99.90
44069;DHT22;29738;51.234;5.484;2022-07-29T10:08:08;21.40;99.90
44069;DHT22;29738;51.234;5.484;2022-07-29T10:10:37;21.50;99.90
44069;DHT22;29738;51.234;5.484;2022-07-29T10:13:09;21.70;99.90
44069;DHT22;29738;51.234;5.484;2022-07-29T10:15:37;21.70;99.90
44069;DHT22;29738;51.234;5.484;2022-07-29T10:18:07;21.80;99.90
44069;DHT22;29738;51.234;5.484;2022-07-29T10:20:34;21.70;99.90
44069;DHT22;29738;51.234;5.484;2022-07-29T10:23:00;21.80;99.90
44069;DHT22;29738;51.234;5.484;2022-07-29T10:25:26;22.00;99.90
44069;DHT22;29738;51.234;5.484;2022-07-29T10:27:52;21.90;99.90
44069;DHT22;29738;51.234;5.484;2022-07-29T10:30:21;21.90;99.90
44069;DHT22;29738;51.234;5.484;2022-07-29T10:36:02;22.30;99.90
44069;DHT22;29738;51.234;5.484;2022-07-29T10:38:55;22.20;99.90
44069;DHT22;29738;51.234;5.484;2022-07-29T10:44:30;22.20;99.90
44069;DHT22;29738;51.234;5.484;2022-07-29T10:46:56;22.30;99.90
44069;DHT22;29738;51.234;5.484;2022-07-29T10:49:23;22.20;99.90
44069;DHT22;29738;51.234;5.484;2022-07-29T10:59:45;22.50;99.90
44069;DHT22;29738;51.234;5.484;2022-07-29T11:05:23;22.80;99.90
44069;DHT22;29738;51.234;5.484;2022-07-29T11:10:45;22.90;99.90
44069;DHT22;29738;51.234;5.484;2022-07-29T11:13:11;22.80;99.90
44069;DHT22;29738;51.234;5.484;2022-07-29T11:15:56;22.90;99.90
44069;DHT22;29738;51.234;5.484;2022-07-29T11:18:23;23.00;99.90
44069;DHT22;29738;51.234;5.484;2022-07-29T11:20:50;23.10;99.90
44069;DHT22;29738;51.234;5.484;2022-07-29T11:25:45;23.50;99.90
44069;DHT22;29738;51.234;5.484;2022-07-29T11:28:17;23.70;99.90
44069;DHT22;29738;51.234;5.484;2022-07-29T11:30:52;23.50;99.90
44069;DHT22;29738;51.234;5.484;2022-07-29T11:33:28;23.40;99.90
44069;DHT22;29738;51.234;5.484;2022-07-29T11:36:11;23.30;99.90
44069;DHT22;29738;51.234;5.484;2022-07-29T11:38:38;23.20;99.90
44069;DHT22;29738;51.234;5.484;2022-07-29T11:41:23;23.20;99.90
44069;DHT22;29738;51.234;5.484;2022-07-29T11:43:57;23.50;99.90
44069;DHT22;29738;51.234;5.484;2022-07-29T11:49:09;24.00;99.90
44069;DHT22;29738;51.234;5.484;2022-07-29T11:51:36;24.10;99.90
44069;DHT22;29738;51.234;5.484;2022-07-29T11:54:04;24.00;99.90
44069;DHT22;29738;51.234;5.484;2022-07-29T11:56:31;24.00;99.90
44069;DHT22;29738;51.234;5.484;2022-07-29T11:59:07;24.30;99.90
44069;DHT22;29738;51.234;5.484;2022-07-29T12:01:35;24.20;99.90
44069;DHT22;29738;51.234;5.484;2022-07-29T12:04:07;24.30;99.90
44069;DHT22;29738;51.234;5.484;2022-07-29T12:06:34;24.40;99.90
44069;DHT22;29738;51.234;5.484;2022-07-29T12:09:00;24.50;99.90
44069;DHT22;29738;51.234;5.484;2022-07-29T12:11:26;24.70;99.90
44069;DHT22;29738;51.234;5.484;2022-07-29T12:13:52;24.70;99.90
44069;DHT22;29738;51.234;5.484;2022-07-29T12:16:19;24.80;99.90
44069;DHT22;29738;51.234;5.484;2022-07-29T12:18:59;25.20;99.90
44069;DHT22;29738;51.234;5.484;2022-07-29T12:21:25;25.20;99.90
44069;DHT22;29738;51.234;5.484;2022-07-29T12:23:55;25.10;99.90
44069;DHT22;29738;51.234;5.484;2022-07-29T12:26:21;25.10;99.90
44069;DHT22;29738;51.234;5.484;2022-07-29T12:28:47;25.60;99.90
44069;DHT22;29738;51.234;5.484;2022-07-29T12:31:14;25.80;99.90
44069;DHT22;29738;51.234;5.484;2022-07-29T12:33:40;25.50;99.90
44069;DHT22;29738;51.234;5.484;2022-07-29T12:36:06;25.10;99.90
44069;DHT22;29738;51.234;5.484;2022-07-29T12:38:33;24.90;99.90
44069;DHT22;29738;51.234;5.484;2022-07-29T12:41:00;24.90;99.90
44069;DHT22;29738;51.234;5.484;2022-07-29T12:43:26;24.90;99.90
44069;DHT22;29738;51.234;5.484;2022-07-29T12:45:53;24.90;99.90
44069;DHT22;29738;51.234;5.484;2022-07-29T12:48:36;25.30;99.90
44069;DHT22;29738;51.234;5.484;2022-07-29T12:51:04;25.90;99.90
44069;DHT22;29738;51.234;5.484;2022-07-29T12:53:31;26.10;99.90
44069;DHT22;29738;51.234;5.484;2022-07-29T12:55:58;26.60;99.90
44069;DHT22;29738;51.234;5.484;2022-07-29T12:58:38;26.30;99.90
44069;DHT22;29738;51.234;5.484;2022-07-29T13:01:09;26.40;99.90
44069;DHT22;29738;51.234;5.484;2022-07-29T13:09:10;26.60;99.90
44069;DHT22;29738;51.234;5.484;2022-07-29T13:14:06;27.40;99.30
44069;DHT22;29738;51.234;5.484;2022-07-29T13:16:32;27.00;99.50
44069;DHT22;29738;51.234;5.484;2022-07-29T13:19:10;26.70;99.90
44069;DHT22;29738;51.234;5.484;2022-07-29T13:21:36;26.20;99.90
44069;DHT22;29738;51.234;5.484;2022-07-29T13:24:03;26.10;99.90
44069;DHT22;29738;51.234;5.484;2022-07-29T13:26:29;26.10;99.90
44069;DHT22;29738;51.234;5.484;2022-07-29T13:28:55;26.30;99.90
44069;DHT22;29738;51.234;5.484;2022-07-29T13:31:21;26.20;99.90
44069;DHT22;29738;51.234;5.484;2022-07-29T13:33:47;26.20;99.90
44069;DHT22;29738;51.234;5.484;2022-07-29T13:36:13;26.20;99.60
44069;DHT22;29738;51.234;5.484;2022-07-29T13:38:39;25.60;99.90
44069;DHT22;29738;51.234;5.484;2022-07-29T13:41:05;25.90;99.90
44069;DHT22;29738;51.234;5.484;2022-07-29T13:43:31;26.70;99.90
44069;DHT22;29738;51.234;5.484;2022-07-29T13:45:57;26.60;99.70
44069;DHT22;29738;51.234;5.484;2022-07-29T13:48:22;26.30;99.90
44069;DHT22;29738;51.234;5.484;2022-07-29T13:50:48;26.30;99.90
44069;DHT22;29738;51.234;5.484;2022-07-29T13:53:14;26.40;99.50
44069;DHT22;29738;51.234;5.484;2022-07-29T13:55:40;25.90;99.60
44069;DHT22;29738;51.234;5.484;2022-07-29T13:58:05;25.80;99.90
44069;DHT22;29738;51.234;5.484;2022-07-29T14:00:31;25.90;99.90
44069;DHT22;29738;51.234;5.484;2022-07-29T14:02:57;25.80;99.90
44069;DHT22;29738;51.234;5.484;2022-07-29T14:05:23;25.80;99.90
44069;DHT22;29738;51.234;5.484;2022-07-29T14:07:49;25.80;99.90
44069;DHT22;29738;51.234;5.484;2022-07-29T14:10:14;25.70;99.90
44069;DHT22;29738;51.234;5.484;2022-07-29T14:12:40;25.30;99.90
44069;DHT22;29738;51.234;5.484;2022-07-29T14:15:08;25.50;99.90
44069;DHT22;29738;51.234;5.484;2022-07-29T14:17:34;25.70;99.90
44069;DHT22;29738;51.234;5.484;2022-07-29T14:20:00;25.90;99.90
44069;DHT22;29738;51.234;5.484;2022-07-29T14:22:26;26.30;99.30
44069;DHT22;29738;51.234;5.484;2022-07-29T14:24:52;26.70;99.50
44069;DHT22;29738;51.234;5.484;2022-07-29T14:27:18;27.30;97.30
44069;DHT22;29738;51.234;5.484;2022-07-29T14:29:43;28.00;96.80
44069;DHT22;29738;51.234;5.484;2022-07-29T14:32:09;27.70;97.50
44069;DHT22;29738;51.234;5.484;2022-07-29T14:34:38;27.90;97.10
44069;DHT22;29738;51.234;5.484;2022-07-29T14:37:05;27.50;96.00
44069;DHT22;29738;51.234;5.484;2022-07-29T14:39:31;27.40;96.00
44069;DHT22;29738;51.234;5.484;2022-07-29T14:41:57;27.20;95.90
44069;DHT22;29738;51.234;5.484;2022-07-29T14:44:23;27.50;95.50
44069;DHT22;29738;51.234;5.484;2022-07-29T14:46:49;27.60;96.10
44069;DHT22;29738;51.234;5.484;2022-07-29T14:49:15;27.70;96.20
44069;DHT22;29738;51.234;5.484;2022-07-29T14:51:41;27.50;94.60
44069;DHT22;29738;51.234;5.484;2022-07-29T14:54:07;27.70;94.40
44069;DHT22;29738;51.234;5.484;2022-07-29T14:56:32;27.70;94.50
44069;DHT22;29738;51.234;5.484;2022-07-29T14:58:58;27.70;94.70
44069;DHT22;29738;51.234;5.484;2022-07-29T15:01:24;28.10;93.70
44069;DHT22;29738;51.234;5.484;2022-07-29T15:03:51;28.30;92.90
44069;DHT22;29738;51.234;5.484;2022-07-29T15:06:17;28.70;92.80
44069;DHT22;29738;51.234;5.484;2022-07-29T15:08:42;28.60;93.40
44069;DHT22;29738;51.234;5.484;2022-07-29T15:11:09;28.10;93.00
44069;DHT22;29738;51.234;5.484;2022-07-29T15:13:35;27.70;93.70
44069;DHT22;29738;51.234;5.484;2022-07-29T15:16:00;27.90;93.40
44069;DHT22;29738;51.234;5.484;2022-07-29T15:18:26;27.90;93.30
44069;DHT22;29738;51.234;5.484;2022-07-29T15:20:55;28.10;93.00
44069;DHT22;29738;51.234;5.484;2022-07-29T15:23:21;28.20;92.40
44069;DHT22;29738;51.234;5.484;2022-07-29T15:25:47;28.40;93.60
44069;DHT22;29738;51.234;5.484;2022-07-29T15:28:13;28.70;92.90
44069;DHT22;29738;51.234;5.484;2022-07-29T15:30:38;28.80;93.00
44069;DHT22;29738;51.234;5.484;2022-07-29T15:33:08;28.40;92.60
44069;DHT22;29738;51.234;5.484;2022-07-29T15:35:35;27.90;93.10
44069;DHT22;29738;51.234;5.484;2022-07-29T15:38:01;28.10;93.40
44069;DHT22;29738;51.234;5.484;2022-07-29T15:40:28;28.00;93.50
44069;DHT22;29738;51.234;5.484;2022-07-29T15:42:54;27.80;93.40
44069;DHT22;29738;51.234;5.484;2022-07-29T15:45:19;27.50;94.10
44069;DHT22;29738;51.234;5.484;2022-07-29T15:47:45;27.30;93.50
44069;DHT22;29738;51.234;5.484;2022-07-29T15:50:11;27.50;93.70
44069;DHT22;29738;51.234;5.484;2022-07-29T15:52:41;27.60;93.30
44069;DHT22;29738;51.234;5.484;2022-07-29T15:55:08;27.60;93.50
44069;DHT22;29738;51.234;5.484;2022-07-29T15:57:34;27.40;93.90
44069;DHT22;29738;51.234;5.484;2022-07-29T16:00:00;27.10;94.30
44069;DHT22;29738;51.234;5.484;2022-07-29T16:02:25;27.20;93.50
44069;DHT22;29738;51.234;5.484;2022-07-29T16:04:51;26.90;93.90
44069;DHT22;29738;51.234;5.484;2022-07-29T16:07:17;27.00;93.40
44069;DHT22;29738;51.234;5.484;2022-07-29T16:09:43;27.20;93.60
44069;DHT22;29738;51.234;5.484;2022-07-29T16:12:09;27.20;93.30
44069;DHT22;29738;51.234;5.484;2022-07-29T16:14:35;27.10;93.40
44069;DHT22;29738;51.234;5.484;2022-07-29T16:17:01;27.20;92.70